MiSS Pamela — WDC3060 — position and weather

sailwx.info

Track history (hours):
 
Tides and Currents Weather Stations Pressure Air Temp Water Temp Dewpoint Dewpoint Depression Visibility Wind Speed Wind Dir Waves Ship Positions

MiSS Pamela

Owner: CENTRAL BOAT RENTALS, BERWICK, LA. More information available from US FCC via Universal Licensing System and Coast Guard Vessel Documentation Center.

Last reported at 2017-Dec-17 22:28 UTC. Time now 2017-Dec-18 05:13 UTC.
Position N 29°50' W 091°58'.

Length 7 m; draft 3 m.

Type: Tug. MMSI: 367002130.

Date/timePositionNaut miles runAvg speedWind from/ knotsBaromVisibWave heightAir tempDewpointWater temp
2017-Dec-17 22:28N 29°50' W 091°58'1 1.5
2017-Dec-17 21:59N 29°50' W 091°58'3 4.9
2017-Dec-17 21:28N 29°49' W 092°01'2 4.9
2017-Dec-17 21:01N 29°49' W 092°04'2 4.9
2017-Dec-17 20:31N 29°48' W 092°06'2 4.6
2017-Dec-17 20:01N 29°47' W 092°09'2 4.5
2017-Dec-17 19:31N 29°47' W 092°11'2 4.5
2017-Dec-17 19:01N 29°48' W 092°14'3 5.3
2017-Dec-17 18:30N 29°49' W 092°17'47 4.8
2017-Dec-17 08:40N 29°56' W 093°10'1 5.1
2017-Dec-17 08:31N 29°57' W 093°10'2 4.2
2017-Dec-17 08:00N 29°59' W 093°12'2 4.2
2017-Dec-17 07:31N 30°00' W 093°14'2 4.2
2017-Dec-17 07:00N 30°02' W 093°15'2 3.4
2017-Dec-17 06:31N 30°03' W 093°16'2 4.3
2017-Dec-17 06:00N 30°05' W 093°17'0 0.9
2017-Dec-17 05:30N 30°05' W 093°18'1 1.2
2017-Dec-17 05:01N 30°06' W 093°18'0 0.0
2017-Dec-17 04:31N 30°06' W 093°18'0 0.0
2017-Dec-17 04:01N 30°06' W 093°18'0 0.0
2017-Dec-17 03:30N 30°06' W 093°18'0 0.0
2017-Dec-17 03:01N 30°06' W 093°18'0 0.0
2017-Dec-17 02:30N 30°06' W 093°18'0 0.0
2017-Dec-17 02:00N 30°06' W 093°18'0 0.0
2017-Dec-17 01:31N 30°06' W 093°18'0 0.0
2017-Dec-17 01:01N 30°06' W 093°18'0 0.0
2017-Dec-17 00:30N 30°06' W 093°18'0 0.0
2017-Dec-17 00:01N 30°06' W 093°18'1 2.1
2017-Dec-16 23:30N 30°06' W 093°19'2 4.4
2017-Dec-16 23:01N 30°04' W 093°21'2 3.7
2017-Dec-16 22:30N 30°04' W 093°23'3 5.3
2017-Dec-16 22:00N 30°04' W 093°26'82 4.2
2017-Dec-16 02:23N 29°31' W 094°53'2 5.5
2017-Dec-16 02:01N 29°33' W 094°54'3 5.7
2017-Dec-16 01:31N 29°35' W 094°56'3 5.9
2017-Dec-16 01:00N 29°38' W 094°58'3 6.0
2017-Dec-16 00:30N 29°40' W 094°59'2 4.1
2017-Dec-15 23:59N 29°42' W 095°00'6 0.1
2017-Dec-13 20:11N 29°36' W 094°57'77 3.3
2017-Dec-12 20:56N 30°04' W 093°34'2 5.6
2017-Dec-12 20:30N 30°04' W 093°32'3 5.7
2017-Dec-12 20:00N 30°04' W 093°28'3 5.3
2017-Dec-12 19:30N 30°04' W 093°25'3 5.7
2017-Dec-12 19:00N 30°04' W 093°22'3 5.3
2017-Dec-12 18:30N 30°05' W 093°20'2 3.6
2017-Dec-12 18:00N 30°05' W 093°18'0 0.0
2017-Dec-12 17:30N 30°05' W 093°18'1 1.9
2017-Dec-12 17:00N 30°05' W 093°17'0 0.3
2017-Dec-12 16:30N 30°05' W 093°16'1 2.1
2017-Dec-12 16:00N 30°04' W 093°16'3 5.6
2017-Dec-12 15:30N 30°01' W 093°14'3 5.7
2017-Dec-12 15:00N 29°59' W 093°12'4 6.0
2017-Dec-12 14:21N 29°56' W 093°09'46 5.3
2017-Dec-12 05:38N 29°49' W 092°16'1 5.5
2017-Dec-12 05:26N 29°48' W 092°15'15 1.7
2017-Dec-11 20:31N 29°50' W 091°58'0 7.8
2017-Dec-11 20:30N 29°50' W 091°58'4 7.6
2017-Dec-11 20:00N 29°49' W 092°03'4 7.1
2017-Dec-11 19:30N 29°48' W 092°06'4 7.7
2017-Dec-11 19:00N 29°47' W 092°11'3 6.3
2017-Dec-11 18:30N 29°48' W 092°14'49 7.0
2017-Dec-11 11:33N 29°56' W 093°10'0 6.7
2017-Dec-11 11:30N 29°56' W 093°10'4 7.1
2017-Dec-11 11:00N 29°59' W 093°12'3 6.2
2017-Dec-11 10:30N 30°02' W 093°14'3 6.8
2017-Dec-11 10:00N 30°05' W 093°17'1 2.1
2017-Dec-11 09:30N 30°05' W 093°18'1 1.2
2017-Dec-11 09:00N 30°06' W 093°18'0 0.6
2017-Dec-11 08:30N 30°06' W 093°18'1 1.2
2017-Dec-11 08:00N 30°06' W 093°19'3 6.3
2017-Dec-11 07:30N 30°04' W 093°21'3 7.0
2017-Dec-11 07:00N 30°04' W 093°25'4 7.6
2017-Dec-11 06:30N 30°04' W 093°30'4 7.5
2017-Dec-11 06:00N 30°04' W 093°34'204 6.8
2017-Dec-09 23:49N 28°12' W 096°50'2 6.9
2017-Dec-09 23:30N 28°11' W 096°52'3 6.6
2017-Dec-09 23:00N 28°08' W 096°54'5 6.5
2017-Dec-09 22:11N 28°04' W 096°58'2 6.5
2017-Dec-09 21:57N 28°03' W 096°59'3 6.8
2017-Dec-09 21:30N 28°01' W 097°01'3 6.8
2017-Dec-09 21:00N 27°58' W 097°03'3 6.6
2017-Dec-09 20:29N 27°54' W 097°03'3 0.9
2017-Dec-09 16:31N 27°51' W 097°04'0 0.0
2017-Dec-09 16:29N 27°51' W 097°04'0 0.0
2017-Dec-09 16:00N 27°51' W 097°04'0 0.0
2017-Dec-09 15:30N 27°51' W 097°04'3 6.0
2017-Dec-09 15:00N 27°50' W 097°07'4 7.9
2017-Dec-09 14:30N 27°49' W 097°11'0 0.1
2017-Dec-09 14:00N 27°49' W 097°11'2 3.0
2017-Dec-09 13:29N 27°49' W 097°13'2 3.8
2017-Dec-09 12:59N 27°51' W 097°14'0 0.3
2017-Dec-09 12:30N 27°51' W 097°14'0 1.0
2017-Dec-09 11:59N 27°50' W 097°14'2 4.1
2017-Dec-09 11:29N 27°49' W 097°12'2 4.6
2017-Dec-09 11:00N 27°49' W 097°10'2 4.3
2017-Dec-09 10:30N 27°50' W 097°07'2 3.6
2017-Dec-09 10:00N 27°50' W 097°05'2 3.7
2017-Dec-09 09:30N 27°51' W 097°03'3 5.6
2017-Dec-09 08:59N 27°54' W 097°03'2 4.9
2017-Dec-09 08:30N 27°56' W 097°04'2 4.6
2017-Dec-09 08:00N 27°58' W 097°03'2 4.8
2017-Dec-09 07:30N 28°00' W 097°01'2 4.7
2017-Dec-09 07:00N 28°02' W 096°60'  
Track history (hours):
 
Tides and Currents Weather Stations Pressure Air Temp Water Temp Dewpoint Dewpoint Depression Visibility Wind Speed Wind Dir Waves Ship Positions

MiSS Pamela

Owner: CENTRAL BOAT RENTALS, BERWICK, LA. More information available from US FCC via Universal Licensing System and Coast Guard Vessel Documentation Center.

Last reported at 2017-Dec-17 22:28 UTC. Time now 2017-Dec-18 05:13 UTC.
Position N 29°50' W 091°58'.

Length 7 m; draft 3 m.

Type: Tug. MMSI: 367002130.

Date/timePositionNaut miles runAvg speedWind from/ knotsBaromVisibWave heightAir tempDewpointWater temp
2017-Dec-17 22:28N 29°50' W 091°58'1 1.5
2017-Dec-17 21:59N 29°50' W 091°58'3 4.9
2017-Dec-17 21:28N 29°49' W 092°01'2 4.9
2017-Dec-17 21:01N 29°49' W 092°04'2 4.9
2017-Dec-17 20:31N 29°48' W 092°06'2 4.6
2017-Dec-17 20:01N 29°47' W 092°09'2 4.5
2017-Dec-17 19:31N 29°47' W 092°11'2 4.5
2017-Dec-17 19:01N 29°48' W 092°14'3 5.3
2017-Dec-17 18:30N 29°49' W 092°17'47 4.8
2017-Dec-17 08:40N 29°56' W 093°10'1 5.1
2017-Dec-17 08:31N 29°57' W 093°10'2 4.2
2017-Dec-17 08:00N 29°59' W 093°12'2 4.2
2017-Dec-17 07:31N 30°00' W 093°14'2 4.2
2017-Dec-17 07:00N 30°02' W 093°15'2 3.4
2017-Dec-17 06:31N 30°03' W 093°16'2 4.3
2017-Dec-17 06:00N 30°05' W 093°17'0 0.9
2017-Dec-17 05:30N 30°05' W 093°18'1 1.2
2017-Dec-17 05:01N 30°06' W 093°18'0 0.0
2017-Dec-17 04:31N 30°06' W 093°18'0 0.0
2017-Dec-17 04:01N 30°06' W 093°18'0 0.0
2017-Dec-17 03:30N 30°06' W 093°18'0 0.0
2017-Dec-17 03:01N 30°06' W 093°18'0 0.0
2017-Dec-17 02:30N 30°06' W 093°18'0 0.0
2017-Dec-17 02:00N 30°06' W 093°18'0 0.0
2017-Dec-17 01:31N 30°06' W 093°18'0 0.0
2017-Dec-17 01:01N 30°06' W 093°18'0 0.0
2017-Dec-17 00:30N 30°06' W 093°18'0 0.0
2017-Dec-17 00:01N 30°06' W 093°18'1 2.1
2017-Dec-16 23:30N 30°06' W 093°19'2 4.4
2017-Dec-16 23:01N 30°04' W 093°21'2 3.7
2017-Dec-16 22:30N 30°04' W 093°23'3 5.3
2017-Dec-16 22:00N 30°04' W 093°26'82 4.2
2017-Dec-16 02:23N 29°31' W 094°53'2 5.5
2017-Dec-16 02:01N 29°33' W 094°54'3 5.7
2017-Dec-16 01:31N 29°35' W 094°56'3 5.9
2017-Dec-16 01:00N 29°38' W 094°58'3 6.0
2017-Dec-16 00:30N 29°40' W 094°59'2 4.1
2017-Dec-15 23:59N 29°42' W 095°00'6 0.1
2017-Dec-13 20:11N 29°36' W 094°57'77 3.3
2017-Dec-12 20:56N 30°04' W 093°34'2 5.6
2017-Dec-12 20:30N 30°04' W 093°32'3 5.7
2017-Dec-12 20:00N 30°04' W 093°28'3 5.3
2017-Dec-12 19:30N 30°04' W 093°25'3 5.7
2017-Dec-12 19:00N 30°04' W 093°22'3 5.3
2017-Dec-12 18:30N 30°05' W 093°20'2 3.6
2017-Dec-12 18:00N 30°05' W 093°18'0 0.0
2017-Dec-12 17:30N 30°05' W 093°18'1 1.9
2017-Dec-12 17:00N 30°05' W 093°17'0 0.3
2017-Dec-12 16:30N 30°05' W 093°16'1 2.1
2017-Dec-12 16:00N 30°04' W 093°16'3 5.6
2017-Dec-12 15:30N 30°01' W 093°14'3 5.7
2017-Dec-12 15:00N 29°59' W 093°12'4 6.0
2017-Dec-12 14:21N 29°56' W 093°09'46 5.3
2017-Dec-12 05:38N 29°49' W 092°16'1 5.5
2017-Dec-12 05:26N 29°48' W 092°15'15 1.7
2017-Dec-11 20:31N 29°50' W 091°58'0 7.8
2017-Dec-11 20:30N 29°50' W 091°58'4 7.6
2017-Dec-11 20:00N 29°49' W 092°03'4 7.1
2017-Dec-11 19:30N 29°48' W 092°06'4 7.7
2017-Dec-11 19:00N 29°47' W 092°11'3 6.3
2017-Dec-11 18:30N 29°48' W 092°14'49 7.0
2017-Dec-11 11:33N 29°56' W 093°10'0 6.7
2017-Dec-11 11:30N 29°56' W 093°10'4 7.1
2017-Dec-11 11:00N 29°59' W 093°12'3 6.2
2017-Dec-11 10:30N 30°02' W 093°14'3 6.8
2017-Dec-11 10:00N 30°05' W 093°17'1 2.1
2017-Dec-11 09:30N 30°05' W 093°18'1 1.2
2017-Dec-11 09:00N 30°06' W 093°18'0 0.6
2017-Dec-11 08:30N 30°06' W 093°18'1 1.2
2017-Dec-11 08:00N 30°06' W 093°19'3 6.3
2017-Dec-11 07:30N 30°04' W 093°21'3 7.0
2017-Dec-11 07:00N 30°04' W 093°25'4 7.6
2017-Dec-11 06:30N 30°04' W 093°30'4 7.5
2017-Dec-11 06:00N 30°04' W 093°34'204 6.8
2017-Dec-09 23:49N 28°12' W 096°50'2 6.9
2017-Dec-09 23:30N 28°11' W 096°52'3 6.6
2017-Dec-09 23:00N 28°08' W 096°54'5 6.5
2017-Dec-09 22:11N 28°04' W 096°58'2 6.5
2017-Dec-09 21:57N 28°03' W 096°59'3 6.8
2017-Dec-09 21:30N 28°01' W 097°01'3 6.8
2017-Dec-09 21:00N 27°58' W 097°03'3 6.6
2017-Dec-09 20:29N 27°54' W 097°03'3 0.9
2017-Dec-09 16:31N 27°51' W 097°04'0 0.0
2017-Dec-09 16:29N 27°51' W 097°04'0 0.0
2017-Dec-09 16:00N 27°51' W 097°04'0 0.0
2017-Dec-09 15:30N 27°51' W 097°04'3 6.0
2017-Dec-09 15:00N 27°50' W 097°07'4 7.9
2017-Dec-09 14:30N 27°49' W 097°11'0 0.1
2017-Dec-09 14:00N 27°49' W 097°11'2 3.0
2017-Dec-09 13:29N 27°49' W 097°13'2 3.8
2017-Dec-09 12:59N 27°51' W 097°14'0 0.3
2017-Dec-09 12:30N 27°51' W 097°14'0 1.0
2017-Dec-09 11:59N 27°50' W 097°14'2 4.1
2017-Dec-09 11:29N 27°49' W 097°12'2 4.6
2017-Dec-09 11:00N 27°49' W 097°10'2 4.3
2017-Dec-09 10:30N 27°50' W 097°07'2 3.6
2017-Dec-09 10:00N 27°50' W 097°05'2 3.7
2017-Dec-09 09:30N 27°51' W 097°03'3 5.6
2017-Dec-09 08:59N 27°54' W 097°03'2 4.9
2017-Dec-09 08:30N 27°56' W 097°04'2 4.6
2017-Dec-09 08:00N 27°58' W 097°03'2 4.8
2017-Dec-09 07:30N 28°00' W 097°01'2 4.7
2017-Dec-09 07:00N 28°02' W 096°60'  

Dump ship's entire track history